GTI3016 KMHT-KCVG
Flight info
| Callsign | GTI3016 |
|---|---|
| Flight time | 2h 3m |
| Altitude | 34000 |
| Route | CAM Q822 GONZZ JOSSY MAULL KODIE SAVVI TIGRR4 |
| Aircraft | B738/M-SDE2E3FGHIRWXY/LB1 |
Departure
| Time | 2026-05-06 15:20 |
|---|---|
| Airport | Manchester-Boston Regional Airport (KMHT) |
Arrival
| Time | 2026-05-06 17:24 |
|---|---|
| Airport | Cincinnati Northern Kentucky International Airport (KCVG) |
| Time | Latitude | Longitude | Altitude | Speed | Heading |
|---|---|---|---|---|---|
| 2026-05-06 14:46 | 42.92355 | -71.44127 | 242 ft | 0 kts | 157° |
| 2026-05-06 15:08 | 42.92374 | -71.44138 | 242 ft | 2 kts | 156° |
| 2026-05-06 15:08 | 42.92395 | -71.44155 | 241 ft | 4 kts | 129° |
| 2026-05-06 15:08 | 42.92404 | -71.44185 | 240 ft | 4 kts | 80° |
| 2026-05-06 15:08 | 42.92402 | -71.44198 | 240 ft | 1 kts | 67° |
| 2026-05-06 15:13 | 42.92414 | -71.44159 | 241 ft | 6 kts | 67° |
| 2026-05-06 15:13 | 42.92431 | -71.44102 | 242 ft | 7 kts | 64° |
| 2026-05-06 15:13 | 42.92455 | -71.44043 | 243 ft | 8 kts | 62° |
| 2026-05-06 15:14 | 42.92475 | -71.43975 | 245 ft | 9 kts | 70° |
| 2026-05-06 15:14 | 42.92507 | -71.43873 | 248 ft | 14 kts | 64° |
| 2026-05-06 15:14 | 42.92547 | -71.43749 | 251 ft | 16 kts | 67° |
| 2026-05-06 15:14 | 42.92593 | -71.43601 | 254 ft | 17 kts | 66° |
| 2026-05-06 15:15 | 42.92640 | -71.43456 | 256 ft | 16 kts | 66° |
| 2026-05-06 15:15 | 42.92685 | -71.43317 | 257 ft | 16 kts | 66° |
| 2026-05-06 15:15 | 42.92726 | -71.43184 | 256 ft | 15 kts | 67° |
| 2026-05-06 15:15 | 42.92766 | -71.43054 | 256 ft | 14 kts | 68° |
| 2026-05-06 15:16 | 42.92840 | -71.43004 | 256 ft | 14 kts | 336° |
| 2026-05-06 15:16 | 42.92938 | -71.43061 | 254 ft | 18 kts | 337° |
| 2026-05-06 15:16 | 42.93060 | -71.43132 | 252 ft | 19 kts | 336° |
| 2026-05-06 15:16 | 42.93182 | -71.43207 | 249 ft | 19 kts | 335° |
| 2026-05-06 15:17 | 42.93300 | -71.43277 | 246 ft | 18 kts | 338° |
| 2026-05-06 15:17 | 42.93425 | -71.43348 | 242 ft | 20 kts | 337° |
| 2026-05-06 15:17 | 42.93551 | -71.43427 | 240 ft | 20 kts | 335° |
| 2026-05-06 15:17 | 42.93677 | -71.43492 | 237 ft | 19 kts | 355° |
| 2026-05-06 15:18 | 42.93807 | -71.43479 | 237 ft | 18 kts | 6° |
| 2026-05-06 15:18 | 42.93924 | -71.43529 | 236 ft | 18 kts | 328° |
| 2026-05-06 15:18 | 42.94024 | -71.43625 | 237 ft | 17 kts | 324° |
| 2026-05-06 15:18 | 42.94126 | -71.43725 | 233 ft | 19 kts | 324° |
| 2026-05-06 15:19 | 42.94207 | -71.43831 | 227 ft | 10 kts | 282° |
| 2026-05-06 15:19 | 42.94180 | -71.43912 | 226 ft | 10 kts | 213° |
| 2026-05-06 15:19 | 42.94114 | -71.43912 | 226 ft | 10 kts | 160° |
| 2026-05-06 15:19 | 42.93922 | -71.43805 | 233 ft | 64 kts | 157° |
| 2026-05-06 15:20 | 42.93299 | -71.43436 | 244 ft | 128 kts | 157° |
| 2026-05-06 15:20 | 42.92664 | -71.43068 | 278 ft | 163 kts | 157° |
| 2026-05-06 15:20 | 42.91580 | -71.42365 | 960 ft | 168 kts | 156° |
| 2026-05-06 15:20 | 42.90409 | -71.42271 | 1700 ft | 175 kts | 203° |
| 2026-05-06 15:21 | 42.89328 | -71.43028 | 2454 ft | 179 kts | 201° |
| 2026-05-06 15:21 | 42.88157 | -71.43682 | 2987 ft | 189 kts | 204° |
| 2026-05-06 15:21 | 42.86904 | -71.44518 | 3016 ft | 212 kts | 208° |
| 2026-05-06 15:21 | 42.85578 | -71.45505 | 2998 ft | 217 kts | 211° |
| 2026-05-06 15:22 | 42.84280 | -71.46573 | 2984 ft | 221 kts | 220° |
| 2026-05-06 15:22 | 42.83458 | -71.48374 | 3243 ft | 229 kts | 249° |
| 2026-05-06 15:22 | 42.83214 | -71.50523 | 4011 ft | 235 kts | 265° |
| 2026-05-06 15:22 | 42.83351 | -71.52756 | 4780 ft | 237 kts | 270° |
| 2026-05-06 15:23 | 42.83575 | -71.54986 | 5525 ft | 237 kts | 271° |
| 2026-05-06 15:23 | 42.83810 | -71.57216 | 6190 ft | 240 kts | 270° |
| 2026-05-06 15:23 | 42.84044 | -71.59486 | 6818 ft | 244 kts | 270° |
| 2026-05-06 15:23 | 42.84278 | -71.61792 | 7446 ft | 247 kts | 270° |
| 2026-05-06 15:24 | 42.84514 | -71.64156 | 7966 ft | 256 kts | 270° |
| 2026-05-06 15:24 | 42.84754 | -71.66603 | 8483 ft | 264 kts | 270° |
| 2026-05-06 15:24 | 42.84997 | -71.69099 | 9033 ft | 265 kts | 270° |
| 2026-05-06 15:24 | 42.85240 | -71.71604 | 9631 ft | 268 kts | 270° |
| 2026-05-06 15:25 | 42.85483 | -71.74122 | 10239 ft | 269 kts | 269° |
| 2026-05-06 15:25 | 42.85722 | -71.76621 | 10851 ft | 270 kts | 269° |
| 2026-05-06 15:25 | 42.85966 | -71.79198 | 11449 ft | 272 kts | 268° |
| 2026-05-06 15:25 | 42.86207 | -71.81771 | 11979 ft | 277 kts | 269° |
| 2026-05-06 15:26 | 42.86452 | -71.84437 | 12268 ft | 290 kts | 269° |
| 2026-05-06 15:26 | 42.86702 | -71.87186 | 12514 ft | 302 kts | 269° |
| 2026-05-06 15:26 | 42.86967 | -71.90078 | 12787 ft | 312 kts | 269° |
| 2026-05-06 15:26 | 42.87243 | -71.93063 | 13053 ft | 322 kts | 270° |
| 2026-05-06 15:27 | 42.87527 | -71.96140 | 13314 ft | 332 kts | 270° |
| 2026-05-06 15:27 | 42.87817 | -71.99294 | 13607 ft | 338 kts | 270° |
| 2026-05-06 15:27 | 42.88112 | -72.02485 | 14124 ft | 339 kts | 270° |
| 2026-05-06 15:27 | 42.88407 | -72.05668 | 14695 ft | 339 kts | 270° |
| 2026-05-06 15:28 | 42.88701 | -72.08877 | 15172 ft | 342 kts | 270° |
| 2026-05-06 15:28 | 42.88995 | -72.12101 | 15663 ft | 344 kts | 271° |
| 2026-05-06 15:28 | 42.89290 | -72.15349 | 16137 ft | 346 kts | 271° |
| 2026-05-06 15:28 | 42.89585 | -72.18617 | 16584 ft | 348 kts | 271° |
| 2026-05-06 15:29 | 42.89881 | -72.21926 | 17063 ft | 354 kts | 271° |
| 2026-05-06 15:29 | 42.90181 | -72.25264 | 17793 ft | 355 kts | 271° |
| 2026-05-06 15:29 | 42.90480 | -72.28607 | 18474 ft | 357 kts | 271° |
| 2026-05-06 15:29 | 42.90780 | -72.31980 | 19065 ft | 360 kts | 271° |
| 2026-05-06 15:30 | 42.91080 | -72.35387 | 19633 ft | 364 kts | 271° |
| 2026-05-06 15:30 | 42.91384 | -72.38839 | 20190 ft | 368 kts | 271° |
| 2026-05-06 15:30 | 42.91690 | -72.42317 | 20741 ft | 370 kts | 271° |
| 2026-05-06 15:30 | 42.91998 | -72.45820 | 21258 ft | 374 kts | 271° |
| 2026-05-06 15:31 | 42.92307 | -72.49359 | 21725 ft | 378 kts | 271° |
| 2026-05-06 15:31 | 42.92617 | -72.52931 | 22205 ft | 381 kts | 272° |
| 2026-05-06 15:31 | 42.92930 | -72.56524 | 22763 ft | 382 kts | 272° |
| 2026-05-06 15:32 | 42.93552 | -72.63756 | 23655 ft | 389 kts | 272° |
| 2026-05-06 15:32 | 42.93867 | -72.67433 | 24120 ft | 391 kts | 272° |
| 2026-05-06 15:32 | 42.94184 | -72.71128 | 24566 ft | 393 kts | 272° |
| 2026-05-06 15:32 | 42.94501 | -72.74844 | 24999 ft | 395 kts | 272° |
| 2026-05-06 15:33 | 42.94816 | -72.78568 | 25432 ft | 396 kts | 272° |
| 2026-05-06 15:33 | 42.95132 | -72.82313 | 25856 ft | 398 kts | 272° |
| 2026-05-06 15:33 | 42.95448 | -72.86068 | 26309 ft | 397 kts | 272° |
| 2026-05-06 15:33 | 42.95759 | -72.89801 | 26918 ft | 393 kts | 272° |
| 2026-05-06 15:34 | 42.96069 | -72.93511 | 27291 ft | 396 kts | 272° |
| 2026-05-06 15:34 | 42.96381 | -72.97277 | 27467 ft | 403 kts | 272° |
| 2026-05-06 15:34 | 42.96697 | -73.01099 | 27750 ft | 406 kts | 272° |
| 2026-05-06 15:34 | 42.97013 | -73.04930 | 28136 ft | 406 kts | 272° |
| 2026-05-06 15:35 | 42.97329 | -73.08758 | 28530 ft | 406 kts | 273° |
| 2026-05-06 15:35 | 42.97643 | -73.12594 | 28902 ft | 407 kts | 272° |
| 2026-05-06 15:35 | 42.97955 | -73.16439 | 29256 ft | 408 kts | 272° |
| 2026-05-06 15:35 | 42.98267 | -73.20289 | 29609 ft | 408 kts | 273° |
| 2026-05-06 15:36 | 42.98578 | -73.24137 | 30084 ft | 405 kts | 273° |
| 2026-05-06 15:36 | 42.98884 | -73.27924 | 30688 ft | 399 kts | 272° |
| 2026-05-06 15:36 | 42.99181 | -73.31625 | 31125 ft | 396 kts | 272° |
| 2026-05-06 15:36 | 42.99452 | -73.35366 | 31483 ft | 395 kts | 270° |
| 2026-05-06 15:37 | 42.99597 | -73.39098 | 31872 ft | 392 kts | 269° |
| 2026-05-06 15:37 | 42.99686 | -73.42813 | 32253 ft | 390 kts | 268° |
| 2026-05-06 15:37 | 42.99758 | -73.46502 | 32700 ft | 387 kts | 268° |
| 2026-05-06 15:37 | 42.99829 | -73.50160 | 33069 ft | 385 kts | 268° |
| 2026-05-06 15:38 | 42.99903 | -73.53810 | 33406 ft | 384 kts | 268° |
| 2026-05-06 15:38 | 42.99982 | -73.57440 | 33787 ft | 381 kts | 268° |
| 2026-05-06 15:38 | 43.00146 | -73.64713 | 33838 ft | 383 kts | 268° |
| 2026-05-06 15:39 | 43.00312 | -73.71961 | 33839 ft | 381 kts | 268° |
| 2026-05-06 15:39 | 43.00474 | -73.79209 | 33834 ft | 382 kts | 268° |
| 2026-05-06 15:40 | 43.00631 | -73.86463 | 33836 ft | 382 kts | 268° |
| 2026-05-06 15:40 | 43.00784 | -73.93710 | 33833 ft | 382 kts | 268° |
| 2026-05-06 15:41 | 43.00932 | -74.00967 | 33832 ft | 382 kts | 267° |
| 2026-05-06 15:41 | 43.01077 | -74.08215 | 33828 ft | 382 kts | 267° |
| 2026-05-06 15:42 | 43.01194 | -74.14248 | 33821 ft | 382 kts | 266° |
| 2026-05-06 15:42 | 43.01330 | -74.21506 | 33820 ft | 382 kts | 266° |
| 2026-05-06 15:43 | 43.01499 | -74.28768 | 33819 ft | 383 kts | 268° |
| 2026-05-06 15:43 | 43.01836 | -74.36028 | 33816 ft | 383 kts | 269° |
| 2026-05-06 15:44 | 43.02189 | -74.43297 | 33812 ft | 383 kts | 268° |
| 2026-05-06 15:44 | 43.02523 | -74.50558 | 33818 ft | 383 kts | 268° |
| 2026-05-06 15:45 | 43.02841 | -74.57820 | 33814 ft | 383 kts | 268° |
| 2026-05-06 15:45 | 43.03150 | -74.65045 | 33819 ft | 383 kts | 268° |
| 2026-05-06 15:46 | 43.03456 | -74.72306 | 33827 ft | 383 kts | 268° |
| 2026-05-06 15:46 | 43.03756 | -74.79567 | 33832 ft | 382 kts | 268° |
| 2026-05-06 15:47 | 43.04053 | -74.86835 | 33828 ft | 383 kts | 268° |
| 2026-05-06 15:47 | 43.04346 | -74.94116 | 33841 ft | 383 kts | 268° |
| 2026-05-06 15:48 | 43.04635 | -75.01402 | 33826 ft | 384 kts | 268° |
| 2026-05-06 15:48 | 43.04919 | -75.08692 | 33842 ft | 384 kts | 268° |
| 2026-05-06 15:49 | 43.05198 | -75.15989 | 33835 ft | 385 kts | 268° |
| 2026-05-06 15:49 | 43.05474 | -75.23292 | 33842 ft | 385 kts | 268° |
| 2026-05-06 15:50 | 43.05742 | -75.30608 | 33838 ft | 385 kts | 267° |
| 2026-05-06 15:50 | 43.05958 | -75.37916 | 33844 ft | 385 kts | 267° |
| 2026-05-06 15:51 | 43.06152 | -75.45232 | 33843 ft | 385 kts | 266° |
| 2026-05-06 15:51 | 43.06348 | -75.52549 | 33842 ft | 385 kts | 266° |
| 2026-05-06 15:52 | 43.06541 | -75.59829 | 33843 ft | 386 kts | 266° |
| 2026-05-06 15:52 | 43.06734 | -75.67220 | 33837 ft | 386 kts | 266° |
| 2026-05-06 15:53 | 43.06919 | -75.74499 | 33846 ft | 386 kts | 266° |
| 2026-05-06 15:53 | 43.07102 | -75.81857 | 33853 ft | 386 kts | 266° |
| 2026-05-06 15:54 | 43.07280 | -75.89203 | 33850 ft | 387 kts | 266° |
| 2026-05-06 15:54 | 43.07453 | -75.96558 | 33856 ft | 387 kts | 266° |
| 2026-05-06 15:55 | 43.07621 | -76.03905 | 33861 ft | 387 kts | 266° |
| 2026-05-06 15:55 | 43.07784 | -76.11253 | 33861 ft | 387 kts | 266° |
| 2026-05-06 15:56 | 43.07943 | -76.18605 | 33864 ft | 387 kts | 266° |
| 2026-05-06 15:56 | 43.08098 | -76.25971 | 33860 ft | 387 kts | 266° |
| 2026-05-06 15:57 | 43.08247 | -76.33339 | 33861 ft | 387 kts | 266° |
| 2026-05-06 15:57 | 43.08392 | -76.40709 | 33857 ft | 388 kts | 266° |
| 2026-05-06 15:58 | 43.08532 | -76.48079 | 33867 ft | 388 kts | 266° |
| 2026-05-06 15:58 | 43.08669 | -76.55452 | 33856 ft | 387 kts | 266° |
| 2026-05-06 15:59 | 43.08775 | -76.62813 | 33859 ft | 385 kts | 262° |
| 2026-05-06 15:59 | 43.07575 | -76.69819 | 33869 ft | 377 kts | 247° |
| 2026-05-06 16:00 | 43.05022 | -76.76025 | 33881 ft | 375 kts | 234° |
| 2026-05-06 16:00 | 43.01895 | -76.81745 | 33872 ft | 376 kts | 234° |
| 2026-05-06 16:01 | 42.98759 | -76.87445 | 33882 ft | 375 kts | 234° |
| 2026-05-06 16:01 | 42.95652 | -76.93121 | 33884 ft | 375 kts | 234° |
| 2026-05-06 16:02 | 42.92532 | -76.98834 | 33880 ft | 375 kts | 234° |
| 2026-05-06 16:02 | 42.89412 | -77.04548 | 33877 ft | 375 kts | 234° |
| 2026-05-06 16:03 | 42.86291 | -77.10255 | 33872 ft | 376 kts | 234° |
| 2026-05-06 16:03 | 42.83162 | -77.15965 | 33872 ft | 375 kts | 234° |
| 2026-05-06 16:04 | 42.80036 | -77.21655 | 33882 ft | 375 kts | 234° |
| 2026-05-06 16:04 | 42.76910 | -77.27339 | 33879 ft | 375 kts | 234° |
| 2026-05-06 16:05 | 42.73783 | -77.33012 | 33886 ft | 375 kts | 235° |
| 2026-05-06 16:05 | 42.70659 | -77.38672 | 33878 ft | 374 kts | 235° |
| 2026-05-06 16:06 | 42.67535 | -77.44320 | 33876 ft | 375 kts | 235° |
| 2026-05-06 16:06 | 42.64379 | -77.50018 | 33867 ft | 379 kts | 234° |
| 2026-05-06 16:07 | 42.61203 | -77.55736 | 33885 ft | 380 kts | 235° |
| 2026-05-06 16:07 | 42.58032 | -77.61430 | 33872 ft | 381 kts | 235° |
| 2026-05-06 16:08 | 42.54833 | -77.67168 | 33872 ft | 381 kts | 235° |
| 2026-05-06 16:08 | 42.51636 | -77.72892 | 33881 ft | 380 kts | 235° |
| 2026-05-06 16:09 | 42.48449 | -77.78588 | 33884 ft | 378 kts | 235° |
| 2026-05-06 16:09 | 42.45275 | -77.84247 | 33881 ft | 376 kts | 235° |
| 2026-05-06 16:10 | 42.42117 | -77.89868 | 33874 ft | 374 kts | 235° |
| 2026-05-06 16:10 | 42.38975 | -77.95452 | 33870 ft | 372 kts | 235° |
| 2026-05-06 16:11 | 42.35839 | -78.01015 | 33864 ft | 372 kts | 236° |
| 2026-05-06 16:11 | 42.32705 | -78.06562 | 33857 ft | 371 kts | 236° |
| 2026-05-06 16:12 | 42.29568 | -78.12106 | 33850 ft | 371 kts | 236° |
| 2026-05-06 16:12 | 42.26432 | -78.17638 | 33845 ft | 371 kts | 235° |
| 2026-05-06 16:13 | 42.23293 | -78.23165 | 33845 ft | 371 kts | 235° |
| 2026-05-06 16:13 | 42.20149 | -78.28690 | 33837 ft | 372 kts | 235° |
| 2026-05-06 16:14 | 42.17016 | -78.34185 | 33837 ft | 372 kts | 235° |
| 2026-05-06 16:14 | 42.13855 | -78.39721 | 33837 ft | 373 kts | 235° |
| 2026-05-06 16:15 | 42.10679 | -78.45271 | 33834 ft | 374 kts | 235° |
| 2026-05-06 16:15 | 42.07501 | -78.50817 | 33832 ft | 374 kts | 235° |
| 2026-05-06 16:16 | 42.04319 | -78.56357 | 33851 ft | 374 kts | 235° |
| 2026-05-06 16:16 | 42.01138 | -78.61883 | 33849 ft | 374 kts | 235° |
| 2026-05-06 16:17 | 41.97952 | -78.67410 | 33848 ft | 373 kts | 236° |
| 2026-05-06 16:17 | 41.94771 | -78.72919 | 33853 ft | 373 kts | 236° |
| 2026-05-06 16:18 | 41.91584 | -78.78428 | 33856 ft | 373 kts | 236° |
| 2026-05-06 16:18 | 41.88417 | -78.83890 | 33857 ft | 373 kts | 236° |
| 2026-05-06 16:19 | 41.85232 | -78.89377 | 33857 ft | 373 kts | 237° |
| 2026-05-06 16:19 | 41.82047 | -78.94852 | 33862 ft | 372 kts | 237° |
| 2026-05-06 16:20 | 41.78866 | -79.00311 | 33859 ft | 371 kts | 237° |
| 2026-05-06 16:20 | 41.75689 | -79.05750 | 33868 ft | 370 kts | 237° |
| 2026-05-06 16:21 | 41.72519 | -79.11172 | 33864 ft | 369 kts | 237° |
| 2026-05-06 16:21 | 41.69355 | -79.16573 | 33873 ft | 368 kts | 237° |
| 2026-05-06 16:22 | 41.66191 | -79.21967 | 33869 ft | 368 kts | 237° |
| 2026-05-06 16:22 | 41.63031 | -79.27341 | 33869 ft | 368 kts | 237° |
| 2026-05-06 16:23 | 41.59863 | -79.32718 | 33877 ft | 368 kts | 237° |
| 2026-05-06 16:23 | 41.56694 | -79.38087 | 33879 ft | 368 kts | 237° |
| 2026-05-06 16:24 | 41.53523 | -79.43451 | 33886 ft | 368 kts | 237° |
| 2026-05-06 16:24 | 41.50350 | -79.48810 | 33880 ft | 367 kts | 237° |
| 2026-05-06 16:25 | 41.47200 | -79.54119 | 33884 ft | 367 kts | 237° |
| 2026-05-06 16:25 | 41.44029 | -79.59455 | 33881 ft | 367 kts | 237° |
| 2026-05-06 16:26 | 41.40861 | -79.64779 | 33884 ft | 367 kts | 237° |
| 2026-05-06 16:26 | 41.37687 | -79.70103 | 33894 ft | 367 kts | 237° |
| 2026-05-06 16:27 | 41.34506 | -79.75428 | 33897 ft | 367 kts | 237° |
| 2026-05-06 16:27 | 41.31330 | -79.80739 | 33901 ft | 367 kts | 237° |
| 2026-05-06 16:28 | 41.28148 | -79.86048 | 33895 ft | 367 kts | 237° |
| 2026-05-06 16:28 | 41.25499 | -79.90457 | 33896 ft | 368 kts | 237° |
| 2026-05-06 16:29 | 41.22304 | -79.95765 | 33900 ft | 367 kts | 237° |
| 2026-05-06 16:29 | 41.19110 | -80.01068 | 33900 ft | 368 kts | 237° |
| 2026-05-06 16:30 | 41.16447 | -80.05478 | 33902 ft | 368 kts | 237° |
| 2026-05-06 16:30 | 41.12712 | -80.11662 | 33901 ft | 367 kts | 237° |
| 2026-05-06 16:31 | 41.09512 | -80.16947 | 33903 ft | 367 kts | 237° |
| 2026-05-06 16:31 | 41.06318 | -80.22213 | 33919 ft | 366 kts | 238° |
| 2026-05-06 16:32 | 41.03124 | -80.27468 | 33919 ft | 366 kts | 238° |
| 2026-05-06 16:32 | 40.99924 | -80.32725 | 33917 ft | 366 kts | 238° |
| 2026-05-06 16:33 | 40.96724 | -80.37973 | 33912 ft | 366 kts | 238° |
| 2026-05-06 16:34 | 40.91922 | -80.45831 | 33922 ft | 366 kts | 238° |
| 2026-05-06 16:34 | 40.88738 | -80.51031 | 33916 ft | 366 kts | 238° |
| 2026-05-06 16:35 | 40.85529 | -80.56261 | 33914 ft | 366 kts | 238° |
| 2026-05-06 16:35 | 40.82323 | -80.61481 | 33913 ft | 366 kts | 238° |
| 2026-05-06 16:36 | 40.79113 | -80.66698 | 33914 ft | 366 kts | 238° |
| 2026-05-06 16:36 | 40.75904 | -80.71903 | 33915 ft | 365 kts | 238° |
| 2026-05-06 16:37 | 40.72696 | -80.77098 | 33919 ft | 365 kts | 238° |
| 2026-05-06 16:37 | 40.69488 | -80.82283 | 33915 ft | 365 kts | 238° |
| 2026-05-06 16:38 | 40.66277 | -80.87462 | 33921 ft | 365 kts | 238° |
| 2026-05-06 16:38 | 40.63064 | -80.92640 | 33924 ft | 365 kts | 238° |
| 2026-05-06 16:39 | 40.59868 | -80.97783 | 33928 ft | 365 kts | 238° |
| 2026-05-06 16:39 | 40.56645 | -81.02958 | 33924 ft | 366 kts | 238° |
| 2026-05-06 16:40 | 40.53419 | -81.08133 | 33925 ft | 366 kts | 238° |
| 2026-05-06 16:40 | 40.50189 | -81.13301 | 33928 ft | 366 kts | 238° |
| 2026-05-06 16:41 | 40.46955 | -81.18464 | 33936 ft | 366 kts | 238° |
| 2026-05-06 16:41 | 40.43721 | -81.23624 | 33931 ft | 366 kts | 238° |
| 2026-05-06 16:42 | 40.40487 | -81.28775 | 33948 ft | 366 kts | 237° |
| 2026-05-06 16:42 | 40.37248 | -81.33924 | 33945 ft | 365 kts | 237° |
| 2026-05-06 16:43 | 40.34013 | -81.39058 | 33943 ft | 364 kts | 237° |
| 2026-05-06 16:43 | 40.30785 | -81.44174 | 33944 ft | 364 kts | 237° |
| 2026-05-06 16:44 | 40.27560 | -81.49279 | 33947 ft | 364 kts | 237° |
| 2026-05-06 16:44 | 40.24473 | -81.54432 | 33937 ft | 357 kts | 245° |
| 2026-05-06 16:45 | 40.22441 | -81.60278 | 33956 ft | 351 kts | 252° |
| 2026-05-06 16:45 | 40.21366 | -81.66468 | 33967 ft | 349 kts | 263° |
| 2026-05-06 16:46 | 40.20871 | -81.72794 | 33967 ft | 349 kts | 263° |
| 2026-05-06 16:46 | 40.20390 | -81.79123 | 33964 ft | 349 kts | 263° |
| 2026-05-06 16:47 | 40.19893 | -81.85452 | 33963 ft | 350 kts | 263° |
| 2026-05-06 16:47 | 40.19383 | -81.91786 | 33966 ft | 350 kts | 263° |
| 2026-05-06 16:48 | 40.18868 | -81.98110 | 33968 ft | 350 kts | 263° |
| 2026-05-06 16:48 | 40.18349 | -82.04437 | 33960 ft | 350 kts | 263° |
| 2026-05-06 16:49 | 40.17826 | -82.10758 | 33967 ft | 350 kts | 263° |
| 2026-05-06 16:49 | 40.17298 | -82.17089 | 33960 ft | 350 kts | 263° |
| 2026-05-06 16:50 | 40.16768 | -82.23420 | 33958 ft | 350 kts | 263° |
| 2026-05-06 16:50 | 40.16500 | -82.26604 | 33712 ft | 353 kts | 263° |
| 2026-05-06 16:50 | 40.16230 | -82.29790 | 33470 ft | 351 kts | 263° |
| 2026-05-06 16:50 | 40.15961 | -82.32940 | 33155 ft | 347 kts | 263° |
| 2026-05-06 16:51 | 40.15700 | -82.36018 | 32854 ft | 344 kts | 263° |
| 2026-05-06 16:51 | 40.15433 | -82.39148 | 32556 ft | 341 kts | 263° |
| 2026-05-06 16:51 | 40.15171 | -82.42217 | 32258 ft | 339 kts | 263° |
| 2026-05-06 16:51 | 40.14909 | -82.45271 | 31955 ft | 338 kts | 263° |
| 2026-05-06 16:52 | 40.14647 | -82.48318 | 31647 ft | 337 kts | 263° |
| 2026-05-06 16:52 | 40.14389 | -82.51314 | 31361 ft | 336 kts | 263° |
| 2026-05-06 16:52 | 40.14126 | -82.54346 | 31069 ft | 335 kts | 263° |
| 2026-05-06 16:52 | 40.13862 | -82.57368 | 30797 ft | 334 kts | 262° |
| 2026-05-06 16:53 | 40.13423 | -82.60341 | 30545 ft | 333 kts | 256° |
| 2026-05-06 16:53 | 40.12749 | -82.63233 | 30296 ft | 333 kts | 253° |
| 2026-05-06 16:53 | 40.11847 | -82.66027 | 30034 ft | 335 kts | 247° |
| 2026-05-06 16:53 | 40.10771 | -82.68729 | 29758 ft | 335 kts | 246° |
| 2026-05-06 16:54 | 40.09669 | -82.71413 | 29490 ft | 336 kts | 246° |
| 2026-05-06 16:54 | 40.08562 | -82.74094 | 29214 ft | 336 kts | 246° |
| 2026-05-06 16:54 | 40.07456 | -82.76777 | 28940 ft | 336 kts | 246° |
| 2026-05-06 16:54 | 40.06353 | -82.79464 | 28664 ft | 335 kts | 246° |
| 2026-05-06 16:55 | 40.05254 | -82.82147 | 28389 ft | 334 kts | 245° |
| 2026-05-06 16:55 | 40.04162 | -82.84813 | 28081 ft | 330 kts | 245° |
| 2026-05-06 16:55 | 40.03091 | -82.87425 | 27778 ft | 322 kts | 245° |
| 2026-05-06 16:55 | 40.02048 | -82.89971 | 27520 ft | 316 kts | 245° |
| 2026-05-06 16:56 | 40.01015 | -82.92495 | 27272 ft | 315 kts | 245° |
| 2026-05-06 16:56 | 39.99982 | -82.95021 | 27021 ft | 315 kts | 245° |
| 2026-05-06 16:56 | 39.98949 | -82.97541 | 26776 ft | 315 kts | 245° |
| 2026-05-06 16:56 | 39.97917 | -83.00054 | 26528 ft | 314 kts | 245° |
| 2026-05-06 16:57 | 39.96884 | -83.02566 | 26279 ft | 314 kts | 245° |
| 2026-05-06 16:57 | 39.95846 | -83.05074 | 26029 ft | 314 kts | 245° |
| 2026-05-06 16:57 | 39.94795 | -83.07574 | 25778 ft | 314 kts | 244° |
| 2026-05-06 16:57 | 39.93739 | -83.10082 | 25536 ft | 321 kts | 244° |
| 2026-05-06 16:58 | 39.92649 | -83.12668 | 25295 ft | 329 kts | 244° |
| 2026-05-06 16:58 | 39.91547 | -83.15280 | 25039 ft | 328 kts | 244° |
| 2026-05-06 16:58 | 39.90455 | -83.17865 | 24783 ft | 324 kts | 244° |
| 2026-05-06 16:58 | 39.89375 | -83.20424 | 24531 ft | 321 kts | 243° |
| 2026-05-06 16:59 | 39.88302 | -83.22964 | 24237 ft | 320 kts | 243° |
| 2026-05-06 16:59 | 39.87229 | -83.25501 | 23941 ft | 319 kts | 243° |
| 2026-05-06 16:59 | 39.86173 | -83.27998 | 23644 ft | 319 kts | 243° |
| 2026-05-06 16:59 | 39.85106 | -83.30520 | 23345 ft | 318 kts | 243° |
| 2026-05-06 17:00 | 39.84038 | -83.33044 | 23044 ft | 318 kts | 243° |
| 2026-05-06 17:00 | 39.82970 | -83.35567 | 22746 ft | 318 kts | 243° |
| 2026-05-06 17:00 | 39.81900 | -83.38089 | 22445 ft | 318 kts | 243° |
| 2026-05-06 17:00 | 39.80830 | -83.40607 | 22146 ft | 318 kts | 243° |
| 2026-05-06 17:01 | 39.79760 | -83.43127 | 21844 ft | 317 kts | 243° |
| 2026-05-06 17:01 | 39.78695 | -83.45628 | 21590 ft | 315 kts | 243° |
| 2026-05-06 17:01 | 39.77636 | -83.48115 | 21292 ft | 314 kts | 243° |
| 2026-05-06 17:01 | 39.76578 | -83.50600 | 20994 ft | 313 kts | 244° |
| 2026-05-06 17:02 | 39.75524 | -83.53074 | 20694 ft | 313 kts | 244° |
| 2026-05-06 17:02 | 39.74469 | -83.55545 | 20390 ft | 312 kts | 244° |
| 2026-05-06 17:02 | 39.73418 | -83.58008 | 20094 ft | 311 kts | 244° |
| 2026-05-06 17:02 | 39.72371 | -83.60459 | 19796 ft | 310 kts | 244° |
| 2026-05-06 17:03 | 39.71327 | -83.62900 | 19496 ft | 309 kts | 244° |
| 2026-05-06 17:03 | 39.70286 | -83.65334 | 19193 ft | 308 kts | 244° |
| 2026-05-06 17:03 | 39.69251 | -83.67755 | 18894 ft | 306 kts | 244° |
| 2026-05-06 17:03 | 39.68218 | -83.70161 | 18586 ft | 304 kts | 244° |
| 2026-05-06 17:04 | 39.67190 | -83.72559 | 18291 ft | 303 kts | 244° |
| 2026-05-06 17:04 | 39.66166 | -83.74949 | 17993 ft | 303 kts | 244° |
| 2026-05-06 17:04 | 39.65147 | -83.77324 | 17749 ft | 300 kts | 244° |
| 2026-05-06 17:04 | 39.64132 | -83.79686 | 17498 ft | 299 kts | 244° |
| 2026-05-06 17:05 | 39.63119 | -83.82040 | 17249 ft | 298 kts | 244° |
| 2026-05-06 17:05 | 39.62106 | -83.84386 | 16999 ft | 298 kts | 244° |
| 2026-05-06 17:05 | 39.61094 | -83.86726 | 16750 ft | 297 kts | 244° |
| 2026-05-06 17:05 | 39.60083 | -83.89063 | 16500 ft | 297 kts | 244° |
| 2026-05-06 17:06 | 39.58986 | -83.91340 | 16248 ft | 300 kts | 238° |
| 2026-05-06 17:06 | 39.57644 | -83.93388 | 16005 ft | 303 kts | 233° |
| 2026-05-06 17:06 | 39.56209 | -83.95379 | 15756 ft | 303 kts | 232° |
| 2026-05-06 17:06 | 39.54758 | -83.97376 | 15507 ft | 303 kts | 232° |
| 2026-05-06 17:07 | 39.53314 | -83.99368 | 15253 ft | 303 kts | 232° |
| 2026-05-06 17:07 | 39.51882 | -84.01357 | 15003 ft | 302 kts | 232° |
| 2026-05-06 17:07 | 39.50448 | -84.03353 | 14754 ft | 301 kts | 232° |
| 2026-05-06 17:07 | 39.49024 | -84.05335 | 14497 ft | 300 kts | 232° |
| 2026-05-06 17:08 | 39.47614 | -84.07296 | 14251 ft | 294 kts | 232° |
| 2026-05-06 17:08 | 39.46229 | -84.09211 | 14008 ft | 287 kts | 232° |
| 2026-05-06 17:08 | 39.44876 | -84.11068 | 13739 ft | 280 kts | 232° |
| 2026-05-06 17:08 | 39.43555 | -84.12882 | 13483 ft | 274 kts | 232° |
| 2026-05-06 17:09 | 39.42261 | -84.14658 | 13227 ft | 269 kts | 231° |
| 2026-05-06 17:09 | 39.40987 | -84.16404 | 12981 ft | 266 kts | 232° |
| 2026-05-06 17:09 | 39.39722 | -84.18141 | 12731 ft | 265 kts | 232° |
| 2026-05-06 17:09 | 39.38495 | -84.19914 | 12484 ft | 264 kts | 234° |
| 2026-05-06 17:10 | 39.37317 | -84.21740 | 12235 ft | 265 kts | 234° |
| 2026-05-06 17:10 | 39.36143 | -84.23569 | 11985 ft | 263 kts | 234° |
| 2026-05-06 17:10 | 39.34984 | -84.25373 | 11726 ft | 258 kts | 234° |
| 2026-05-06 17:10 | 39.33845 | -84.27140 | 11479 ft | 255 kts | 234° |
| 2026-05-06 17:11 | 39.32704 | -84.28905 | 11230 ft | 255 kts | 234° |
| 2026-05-06 17:11 | 39.31562 | -84.30670 | 10983 ft | 257 kts | 234° |
| 2026-05-06 17:11 | 39.30411 | -84.32447 | 10726 ft | 259 kts | 233° |
| 2026-05-06 17:11 | 39.29251 | -84.34238 | 10474 ft | 261 kts | 233° |
| 2026-05-06 17:12 | 39.28082 | -84.36039 | 10226 ft | 263 kts | 233° |
| 2026-05-06 17:12 | 39.26904 | -84.37852 | 9981 ft | 265 kts | 233° |
| 2026-05-06 17:12 | 39.25717 | -84.39680 | 9733 ft | 267 kts | 232° |
| 2026-05-06 17:12 | 39.24516 | -84.41527 | 9479 ft | 269 kts | 232° |
| 2026-05-06 17:13 | 39.23326 | -84.43355 | 9236 ft | 271 kts | 232° |
| 2026-05-06 17:13 | 39.22092 | -84.45252 | 8986 ft | 273 kts | 232° |
| 2026-05-06 17:13 | 39.20882 | -84.47110 | 8737 ft | 274 kts | 232° |
| 2026-05-06 17:13 | 39.19655 | -84.48992 | 8501 ft | 274 kts | 232° |
| 2026-05-06 17:14 | 39.18436 | -84.50859 | 8316 ft | 268 kts | 232° |
| 2026-05-06 17:14 | 39.17196 | -84.52616 | 8119 ft | 264 kts | 220° |
| 2026-05-06 17:14 | 39.15569 | -84.53676 | 7945 ft | 264 kts | 198° |
| 2026-05-06 17:14 | 39.13731 | -84.53890 | 7781 ft | 268 kts | 181° |
| 2026-05-06 17:15 | 39.11873 | -84.53791 | 7644 ft | 266 kts | 181° |
| 2026-05-06 17:15 | 39.10025 | -84.53686 | 7513 ft | 267 kts | 181° |
| 2026-05-06 17:15 | 39.08169 | -84.53589 | 7399 ft | 268 kts | 181° |
| 2026-05-06 17:15 | 39.06313 | -84.53498 | 7280 ft | 266 kts | 181° |
| 2026-05-06 17:16 | 39.05089 | -84.53445 | 7190 ft | 263 kts | 182° |
| 2026-05-06 17:16 | 39.03265 | -84.53437 | 6935 ft | 262 kts | 183° |
| 2026-05-06 17:16 | 39.01448 | -84.53456 | 6679 ft | 260 kts | 183° |
| 2026-05-06 17:16 | 38.99637 | -84.53476 | 6431 ft | 259 kts | 183° |
| 2026-05-06 17:17 | 38.97835 | -84.53495 | 6190 ft | 259 kts | 183° |
| 2026-05-06 17:17 | 38.96028 | -84.53511 | 5890 ft | 261 kts | 183° |
| 2026-05-06 17:17 | 38.94213 | -84.53528 | 5571 ft | 262 kts | 182° |
| 2026-05-06 17:17 | 38.92389 | -84.53540 | 5263 ft | 262 kts | 182° |
| 2026-05-06 17:18 | 38.90596 | -84.53557 | 5022 ft | 251 kts | 184° |
| 2026-05-06 17:18 | 38.88974 | -84.54121 | 4761 ft | 239 kts | 214° |
| 2026-05-06 17:18 | 38.87838 | -84.55583 | 4475 ft | 230 kts | 240° |
| 2026-05-06 17:18 | 38.87273 | -84.57467 | 4216 ft | 226 kts | 263° |
| 2026-05-06 17:19 | 38.87187 | -84.59473 | 3987 ft | 223 kts | 271° |
| 2026-05-06 17:19 | 38.87201 | -84.61395 | 3983 ft | 209 kts | 272° |
| 2026-05-06 17:19 | 38.87218 | -84.63248 | 4008 ft | 207 kts | 273° |
| 2026-05-06 17:19 | 38.87436 | -84.65030 | 3983 ft | 201 kts | 299° |
| 2026-05-06 17:20 | 38.88458 | -84.66223 | 3762 ft | 208 kts | 340° |
| 2026-05-06 17:20 | 38.89874 | -84.66607 | 3517 ft | 210 kts | 351° |
| 2026-05-06 17:20 | 38.91296 | -84.66824 | 3234 ft | 206 kts | 354° |
| 2026-05-06 17:20 | 38.92705 | -84.66917 | 2949 ft | 194 kts | 358° |
| 2026-05-06 17:21 | 38.93989 | -84.66914 | 2714 ft | 182 kts | 359° |
| 2026-05-06 17:21 | 38.95214 | -84.66909 | 2481 ft | 170 kts | 359° |
| 2026-05-06 17:21 | 38.96363 | -84.66904 | 2260 ft | 160 kts | 359° |
| 2026-05-06 17:21 | 38.97422 | -84.66899 | 2091 ft | 145 kts | 358° |
| 2026-05-06 17:22 | 38.98424 | -84.66895 | 1861 ft | 142 kts | 358° |
| 2026-05-06 17:22 | 38.99392 | -84.66891 | 1706 ft | 137 kts | 358° |
| 2026-05-06 17:22 | 39.00329 | -84.66906 | 1635 ft | 133 kts | 356° |
| 2026-05-06 17:22 | 39.01269 | -84.66902 | 1355 ft | 137 kts | 2° |
| 2026-05-06 17:23 | 39.02234 | -84.66886 | 1160 ft | 140 kts | 356° |
| 2026-05-06 17:23 | 39.03215 | -84.66875 | 956 ft | 140 kts | 357° |
| 2026-05-06 17:23 | 39.04165 | -84.66872 | 859 ft | 127 kts | 356° |
| 2026-05-06 17:23 | 39.04872 | -84.66880 | 879 ft | 71 kts | 1° |
| 2026-05-06 17:24 | 39.05156 | -84.66872 | 875 ft | 20 kts | 11° |
| 2026-05-06 17:24 | 39.05211 | -84.66734 | 876 ft | 20 kts | 128° |
| 2026-05-06 17:24 | 39.05106 | -84.66716 | 877 ft | 15 kts | 178° |
| 2026-05-06 17:24 | 39.04991 | -84.66720 | 877 ft | 17 kts | 182° |
| 2026-05-06 17:25 | 39.04874 | -84.66727 | 879 ft | 17 kts | 182° |
| 2026-05-06 17:25 | 39.04788 | -84.66728 | 881 ft | 9 kts | 180° |
| 2026-05-06 17:25 | 39.04727 | -84.66728 | 881 ft | 9 kts | 180° |
| 2026-05-06 17:25 | 39.04647 | -84.66728 | 879 ft | 15 kts | 180° |
| 2026-05-06 17:26 | 39.04516 | -84.66728 | 876 ft | 21 kts | 180° |
| 2026-05-06 17:26 | 39.04368 | -84.66729 | 873 ft | 22 kts | 180° |
| 2026-05-06 17:26 | 39.04205 | -84.66729 | 854 ft | 24 kts | 180° |
| 2026-05-06 17:26 | 39.04060 | -84.66731 | 859 ft | 20 kts | 181° |
| 2026-05-06 17:27 | 39.03917 | -84.66731 | 854 ft | 21 kts | 180° |
| 2026-05-06 17:27 | 39.03765 | -84.66730 | 843 ft | 22 kts | 180° |
| 2026-05-06 17:27 | 39.03641 | -84.66731 | 843 ft | 14 kts | 181° |
| 2026-05-06 17:27 | 39.03593 | -84.66640 | 852 ft | 14 kts | 92° |
| 2026-05-06 17:28 | 39.03593 | -84.66511 | 850 ft | 15 kts | 89° |
| 2026-05-06 17:28 | 39.03530 | -84.66459 | 851 ft | 11 kts | 175° |
| 2026-05-06 17:28 | 39.03452 | -84.66456 | 845 ft | 11 kts | 180° |
| 2026-05-06 17:28 | 39.03384 | -84.66459 | 841 ft | 9 kts | 184° |
| 2026-05-06 17:29 | 39.03319 | -84.66461 | 844 ft | 9 kts | 181° |
| 2026-05-06 17:29 | 39.03255 | -84.66463 | 853 ft | 9 kts | 180° |
| 2026-05-06 17:29 | 39.03194 | -84.66462 | 854 ft | 9 kts | 181° |
| 2026-05-06 17:29 | 39.03134 | -84.66463 | 845 ft | 8 kts | 180° |
| 2026-05-06 17:30 | 39.03075 | -84.66464 | 848 ft | 8 kts | 180° |
| 2026-05-06 17:30 | 39.03032 | -84.66467 | 848 ft | 2 kts | 204° |
| 2026-05-06 17:30 | 39.03026 | -84.66481 | 857 ft | 2 kts | 245° |
| 2026-05-06 17:30 | 39.03021 | -84.66511 | 844 ft | 5 kts | 266° |
| 2026-05-06 17:31 | 39.03021 | -84.66551 | 848 ft | 5 kts | 271° |
| 2026-05-06 17:31 | 39.03021 | -84.66580 | 855 ft | 1 kts | 271° |
| 2026-05-06 17:31 | 39.03021 | -84.66581 | 855 ft | 0 kts | 271° |